sensor_id;sensor_type;location;lat;lon;timestamp;temperature;humidity
71733;DHT22;65965;43.502;3.716;2023-01-08T00:00:26;10.30;89.90
71733;DHT22;65965;43.502;3.716;2023-01-08T00:02:51;10.30;90.00
71733;DHT22;65965;43.502;3.716;2023-01-08T00:05:17;10.40;89.60
71733;DHT22;65965;43.502;3.716;2023-01-08T00:07:43;10.50;89.10
71733;DHT22;65965;43.502;3.716;2023-01-08T00:10:08;10.60;88.80
71733;DHT22;65965;43.502;3.716;2023-01-08T00:12:34;10.60;88.50
71733;DHT22;65965;43.502;3.716;2023-01-08T00:15:00;10.70;88.40
71733;DHT22;65965;43.502;3.716;2023-01-08T00:17:26;10.70;88.20
71733;DHT22;65965;43.502;3.716;2023-01-08T00:19:52;10.70;88.10
71733;DHT22;65965;43.502;3.716;2023-01-08T00:22:17;10.70;88.10
71733;DHT22;65965;43.502;3.716;2023-01-08T00:24:43;10.80;87.90
71733;DHT22;65965;43.502;3.716;2023-01-08T00:27:09;10.80;87.80
71733;DHT22;65965;43.502;3.716;2023-01-08T00:29:34;10.80;87.70
71733;DHT22;65965;43.502;3.716;2023-01-08T00:32:02;10.80;87.80
71733;DHT22;65965;43.502;3.716;2023-01-08T00:34:28;10.80;87.70
71733;DHT22;65965;43.502;3.716;2023-01-08T00:36:53;10.80;87.70
71733;DHT22;65965;43.502;3.716;2023-01-08T00:39:19;10.80;87.70
71733;DHT22;65965;43.502;3.716;2023-01-08T00:41:45;10.80;87.60
71733;DHT22;65965;43.502;3.716;2023-01-08T00:44:11;10.80;87.60
71733;DHT22;65965;43.502;3.716;2023-01-08T00:46:36;10.80;87.50
71733;DHT22;65965;43.502;3.716;2023-01-08T00:49:02;10.70;87.60
71733;DHT22;65965;43.502;3.716;2023-01-08T00:51:28;10.70;87.90
71733;DHT22;65965;43.502;3.716;2023-01-08T00:53:53;10.60;88.20
71733;DHT22;65965;43.502;3.716;2023-01-08T00:56:19;10.70;87.90
71733;DHT22;65965;43.502;3.716;2023-01-08T00:58:45;10.60;87.80
71733;DHT22;65965;43.502;3.716;2023-01-08T01:01:12;10.50;88.00
71733;DHT22;65965;43.502;3.716;2023-01-08T01:03:38;10.40;88.30
71733;DHT22;65965;43.502;3.716;2023-01-08T01:06:05;10.30;88.60
71733;DHT22;65965;43.502;3.716;2023-01-08T01:08:32;10.30;88.60
71733;DHT22;65965;43.502;3.716;2023-01-08T01:10:58;10.20;89.00
71733;DHT22;65965;43.502;3.716;2023-01-08T01:13:23;10.20;89.10
71733;DHT22;65965;43.502;3.716;2023-01-08T01:15:59;10.20;89.10
71733;DHT22;65965;43.502;3.716;2023-01-08T01:18:25;10.20;89.30
71733;DHT22;65965;43.502;3.716;2023-01-08T01:20:51;10.20;89.50
71733;DHT22;65965;43.502;3.716;2023-01-08T01:23:17;10.20;89.30
71733;DHT22;65965;43.502;3.716;2023-01-08T01:25:44;10.10;89.20
71733;DHT22;65965;43.502;3.716;2023-01-08T01:28:09;10.10;89.20
71733;DHT22;65965;43.502;3.716;2023-01-08T01:30:35;10.10;89.40
71733;DHT22;65965;43.502;3.716;2023-01-08T01:33:01;10.10;89.70
71733;DHT22;65965;43.502;3.716;2023-01-08T01:35:27;10.10;89.60
71733;DHT22;65965;43.502;3.716;2023-01-08T01:37:52;10.10;89.70
71733;DHT22;65965;43.502;3.716;2023-01-08T01:40:18;10.00;89.80
71733;DHT22;65965;43.502;3.716;2023-01-08T01:42:44;10.00;89.80
71733;DHT22;65965;43.502;3.716;2023-01-08T01:45:24;10.00;89.90
71733;DHT22;65965;43.502;3.716;2023-01-08T01:48:01;10.00;90.20
71733;DHT22;65965;43.502;3.716;2023-01-08T01:53:12;10.10;89.70
71733;DHT22;65965;43.502;3.716;2023-01-08T01:55:41;10.10;89.60
71733;DHT22;65965;43.502;3.716;2023-01-08T01:58:25;10.10;89.60
71733;DHT22;65965;43.502;3.716;2023-01-08T02:00:52;10.10;89.50
71733;DHT22;65965;43.502;3.716;2023-01-08T02:03:24;10.10;89.90
71733;DHT22;65965;43.502;3.716;2023-01-08T02:06:04;10.10;89.70
71733;DHT22;65965;43.502;3.716;2023-01-08T02:14:12;9.90;89.90
71733;DHT22;65965;43.502;3.716;2023-01-08T02:16:56;9.80;90.10
71733;DHT22;65965;43.502;3.716;2023-01-08T02:19:52;9.70;90.50
71733;DHT22;65965;43.502;3.716;2023-01-08T02:28:08;9.80;91.10
71733;DHT22;65965;43.502;3.716;2023-01-08T02:30:35;9.70;90.80
71733;DHT22;65965;43.502;3.716;2023-01-08T02:33:01;9.70;90.70
71733;DHT22;65965;43.502;3.716;2023-01-08T02:35:39;9.70;90.90
71733;DHT22;65965;43.502;3.716;2023-01-08T02:38:09;9.60;90.90
71733;DHT22;65965;43.502;3.716;2023-01-08T02:43:47;9.50;91.30
71733;DHT22;65965;43.502;3.716;2023-01-08T02:46:19;9.50;91.50
71733;DHT22;65965;43.502;3.716;2023-01-08T02:49:00;9.50;91.50
71733;DHT22;65965;43.502;3.716;2023-01-08T02:51:34;9.40;91.40
71733;DHT22;65965;43.502;3.716;2023-01-08T02:54:04;9.40;91.40
71733;DHT22;65965;43.502;3.716;2023-01-08T02:56:58;9.30;91.50
71733;DHT22;65965;43.502;3.716;2023-01-08T02:59:26;9.30;91.60
71733;DHT22;65965;43.502;3.716;2023-01-08T03:01:54;9.40;92.00
71733;DHT22;65965;43.502;3.716;2023-01-08T03:04:21;9.30;91.70
71733;DHT22;65965;43.502;3.716;2023-01-08T03:06:48;9.30;91.70
71733;DHT22;65965;43.502;3.716;2023-01-08T03:09:15;9.30;91.70
71733;DHT22;65965;43.502;3.716;2023-01-08T03:11:52;9.20;91.80
71733;DHT22;65965;43.502;3.716;2023-01-08T03:14:31;9.20;91.90
71733;DHT22;65965;43.502;3.716;2023-01-08T03:17:08;9.20;91.90
71733;DHT22;65965;43.502;3.716;2023-01-08T03:19:44;9.10;91.90
71733;DHT22;65965;43.502;3.716;2023-01-08T03:22:14;9.10;92.00
71733;DHT22;65965;43.502;3.716;2023-01-08T03:24:41;9.00;92.10
71733;DHT22;65965;43.502;3.716;2023-01-08T03:27:11;9.00;92.20
71733;DHT22;65965;43.502;3.716;2023-01-08T03:29:39;9.10;92.50
71733;DHT22;65965;43.502;3.716;2023-01-08T03:32:09;9.00;92.30
71733;DHT22;65965;43.502;3.716;2023-01-08T03:34:37;9.00;92.40
71733;DHT22;65965;43.502;3.716;2023-01-08T03:37:05;8.90;92.30
71733;DHT22;65965;43.502;3.716;2023-01-08T03:39:56;8.90;92.40
71733;DHT22;65965;43.502;3.716;2023-01-08T03:42:24;8.80;92.50
71733;DHT22;65965;43.502;3.716;2023-01-08T03:44:50;8.80;92.50
71733;DHT22;65965;43.502;3.716;2023-01-08T03:47:19;8.80;92.50
71733;DHT22;65965;43.502;3.716;2023-01-08T03:49:46;8.80;92.60
71733;DHT22;65965;43.502;3.716;2023-01-08T03:52:27;8.90;92.90
71733;DHT22;65965;43.502;3.716;2023-01-08T03:54:54;8.90;92.80
71733;DHT22;65965;43.502;3.716;2023-01-08T03:57:20;8.90;92.60
71733;DHT22;65965;43.502;3.716;2023-01-08T03:59:45;8.90;92.80
71733;DHT22;65965;43.502;3.716;2023-01-08T04:02:11;9.00;92.90
71733;DHT22;65965;43.502;3.716;2023-01-08T04:04:37;9.00;93.00
71733;DHT22;65965;43.502;3.716;2023-01-08T04:07:03;9.00;92.80
71733;DHT22;65965;43.502;3.716;2023-01-08T04:09:28;9.10;92.80
71733;DHT22;65965;43.502;3.716;2023-01-08T04:11:54;9.00;92.80
71733;DHT22;65965;43.502;3.716;2023-01-08T04:14:20;9.10;92.80
71733;DHT22;65965;43.502;3.716;2023-01-08T04:16:45;9.10;92.80
71733;DHT22;65965;43.502;3.716;2023-01-08T04:19:12;9.10;92.80
71733;DHT22;65965;43.502;3.716;2023-01-08T04:21:38;9.10;92.80
71733;DHT22;65965;43.502;3.716;2023-01-08T04:24:04;9.10;92.60
71733;DHT22;65965;43.502;3.716;2023-01-08T04:26:30;9.10;92.60
71733;DHT22;65965;43.502;3.716;2023-01-08T04:28:55;9.10;92.50
71733;DHT22;65965;43.502;3.716;2023-01-08T04:31:21;9.10;92.50
71733;DHT22;65965;43.502;3.716;2023-01-08T04:33:47;9.20;92.70
71733;DHT22;65965;43.502;3.716;2023-01-08T04:36:13;9.30;92.70
71733;DHT22;65965;43.502;3.716;2023-01-08T04:38:39;9.40;92.60
71733;DHT22;65965;43.502;3.716;2023-01-08T04:41:04;9.50;92.50
71733;DHT22;65965;43.502;3.716;2023-01-08T04:43:31;9.60;92.30
71733;DHT22;65965;43.502;3.716;2023-01-08T04:46:01;9.60;92.00
71733;DHT22;65965;43.502;3.716;2023-01-08T04:48:28;9.60;91.80
71733;DHT22;65965;43.502;3.716;2023-01-08T04:50:57;9.70;91.90
71733;DHT22;65965;43.502;3.716;2023-01-08T04:53:23;9.70;91.60
71733;DHT22;65965;43.502;3.716;2023-01-08T04:55:49;9.60;91.30
71733;DHT22;65965;43.502;3.716;2023-01-08T04:58:14;9.60;91.40
71733;DHT22;65965;43.502;3.716;2023-01-08T05:00:40;9.50;91.40
71733;DHT22;65965;43.502;3.716;2023-01-08T05:03:06;9.50;91.40
71733;DHT22;65965;43.502;3.716;2023-01-08T05:05:32;9.50;91.60
71733;DHT22;65965;43.502;3.716;2023-01-08T05:07:59;9.50;91.70
71733;DHT22;65965;43.502;3.716;2023-01-08T05:10:25;9.50;91.80
71733;DHT22;65965;43.502;3.716;2023-01-08T05:12:50;9.40;91.70
71733;DHT22;65965;43.502;3.716;2023-01-08T05:15:16;9.40;91.80
71733;DHT22;65965;43.502;3.716;2023-01-08T05:17:42;9.40;91.80
71733;DHT22;65965;43.502;3.716;2023-01-08T05:20:08;9.30;91.90
71733;DHT22;65965;43.502;3.716;2023-01-08T05:22:34;9.30;92.20
71733;DHT22;65965;43.502;3.716;2023-01-08T05:25:00;9.30;92.30
71733;DHT22;65965;43.502;3.716;2023-01-08T05:27:27;9.30;92.30
71733;DHT22;65965;43.502;3.716;2023-01-08T05:29:53;9.20;92.30
71733;DHT22;65965;43.502;3.716;2023-01-08T05:32:19;9.30;92.30
71733;DHT22;65965;43.502;3.716;2023-01-08T05:34:45;9.30;92.40
71733;DHT22;65965;43.502;3.716;2023-01-08T05:37:11;9.30;92.30
71733;DHT22;65965;43.502;3.716;2023-01-08T05:39:37;9.30;92.30
71733;DHT22;65965;43.502;3.716;2023-01-08T05:42:03;9.40;92.30
71733;DHT22;65965;43.502;3.716;2023-01-08T05:44:29;9.40;92.10
71733;DHT22;65965;43.502;3.716;2023-01-08T05:46:55;9.40;92.00
71733;DHT22;65965;43.502;3.716;2023-01-08T05:49:22;9.40;92.00
71733;DHT22;65965;43.502;3.716;2023-01-08T05:51:49;9.30;91.90
71733;DHT22;65965;43.502;3.716;2023-01-08T05:54:15;9.40;92.10
71733;DHT22;65965;43.502;3.716;2023-01-08T05:56:40;9.30;92.10
71733;DHT22;65965;43.502;3.716;2023-01-08T05:59:13;9.40;92.10
71733;DHT22;65965;43.502;3.716;2023-01-08T06:01:38;9.30;92.10
71733;DHT22;65965;43.502;3.716;2023-01-08T06:04:04;9.40;92.10
71733;DHT22;65965;43.502;3.716;2023-01-08T06:06:30;9.40;92.20
71733;DHT22;65965;43.502;3.716;2023-01-08T06:08:56;9.50;92.20
71733;DHT22;65965;43.502;3.716;2023-01-08T06:11:21;9.40;91.90
71733;DHT22;65965;43.502;3.716;2023-01-08T06:13:47;9.30;91.90
71733;DHT22;65965;43.502;3.716;2023-01-08T06:16:13;9.20;92.00
71733;DHT22;65965;43.502;3.716;2023-01-08T06:18:39;9.30;92.20
71733;DHT22;65965;43.502;3.716;2023-01-08T06:21:05;9.30;92.10
71733;DHT22;65965;43.502;3.716;2023-01-08T06:23:31;9.20;92.10
71733;DHT22;65965;43.502;3.716;2023-01-08T06:26:00;9.20;92.20
71733;DHT22;65965;43.502;3.716;2023-01-08T06:28:26;9.20;92.20
71733;DHT22;65965;43.502;3.716;2023-01-08T06:30:52;9.20;92.20
71733;DHT22;65965;43.502;3.716;2023-01-08T06:33:19;9.30;92.10
71733;DHT22;65965;43.502;3.716;2023-01-08T06:35:44;9.30;92.00
71733;DHT22;65965;43.502;3.716;2023-01-08T06:38:10;9.40;92.20
71733;DHT22;65965;43.502;3.716;2023-01-08T06:40:36;9.40;92.10
71733;DHT22;65965;43.502;3.716;2023-01-08T06:43:02;9.40;91.90
71733;DHT22;65965;43.502;3.716;2023-01-08T06:45:28;9.30;91.90
71733;DHT22;65965;43.502;3.716;2023-01-08T06:47:54;9.30;91.80
71733;DHT22;65965;43.502;3.716;2023-01-08T06:50:20;9.20;91.80
71733;DHT22;65965;43.502;3.716;2023-01-08T06:52:53;9.10;91.80
71733;DHT22;65965;43.502;3.716;2023-01-08T06:55:20;8.90;91.70
71733;DHT22;65965;43.502;3.716;2023-01-08T06:57:46;8.90;91.90
71733;DHT22;65965;43.502;3.716;2023-01-08T07:00:12;8.90;92.20
71733;DHT22;65965;43.502;3.716;2023-01-08T07:02:38;8.80;92.20
71733;DHT22;65965;43.502;3.716;2023-01-08T07:05:04;8.60;92.00
71733;DHT22;65965;43.502;3.716;2023-01-08T07:07:29;8.40;92.60
71733;DHT22;65965;43.502;3.716;2023-01-08T07:09:55;8.30;92.60
71733;DHT22;65965;43.502;3.716;2023-01-08T07:12:21;8.20;92.70
71733;DHT22;65965;43.502;3.716;2023-01-08T07:14:47;8.20;93.00
71733;DHT22;65965;43.502;3.716;2023-01-08T07:17:12;8.10;93.10
71733;DHT22;65965;43.502;3.716;2023-01-08T07:19:38;8.20;93.50
71733;DHT22;65965;43.502;3.716;2023-01-08T07:22:04;8.30;93.70
71733;DHT22;65965;43.502;3.716;2023-01-08T07:24:29;8.40;93.80
71733;DHT22;65965;43.502;3.716;2023-01-08T07:26:55;8.50;93.70
71733;DHT22;65965;43.502;3.716;2023-01-08T07:29:21;8.50;93.70
71733;DHT22;65965;43.502;3.716;2023-01-08T07:31:47;8.60;93.60
71733;DHT22;65965;43.502;3.716;2023-01-08T07:34:12;8.60;93.70
71733;DHT22;65965;43.502;3.716;2023-01-08T07:36:38;8.70;93.70
71733;DHT22;65965;43.502;3.716;2023-01-08T07:39:04;8.70;93.60
71733;DHT22;65965;43.502;3.716;2023-01-08T07:41:29;8.80;93.50
71733;DHT22;65965;43.502;3.716;2023-01-08T07:43:55;8.80;93.50
71733;DHT22;65965;43.502;3.716;2023-01-08T07:46:21;8.90;93.50
71733;DHT22;65965;43.502;3.716;2023-01-08T07:48:47;8.80;93.10
71733;DHT22;65965;43.502;3.716;2023-01-08T07:51:13;8.80;93.10
71733;DHT22;65965;43.502;3.716;2023-01-08T07:53:38;8.70;93.00
71733;DHT22;65965;43.502;3.716;2023-01-08T07:56:06;8.70;93.00
71733;DHT22;65965;43.502;3.716;2023-01-08T07:58:32;8.60;92.90
71733;DHT22;65965;43.502;3.716;2023-01-08T08:00:58;8.60;92.90
71733;DHT22;65965;43.502;3.716;2023-01-08T08:03:24;8.70;92.90
71733;DHT22;65965;43.502;3.716;2023-01-08T08:05:50;8.70;92.80
71733;DHT22;65965;43.502;3.716;2023-01-08T08:08:16;8.70;92.60
71733;DHT22;65965;43.502;3.716;2023-01-08T08:10:43;8.80;92.60
71733;DHT22;65965;43.502;3.716;2023-01-08T08:13:09;8.80;92.50
71733;DHT22;65965;43.502;3.716;2023-01-08T08:15:36;8.90;92.70
71733;DHT22;65965;43.502;3.716;2023-01-08T08:18:03;9.00;92.60
71733;DHT22;65965;43.502;3.716;2023-01-08T08:20:29;9.10;92.50
71733;DHT22;65965;43.502;3.716;2023-01-08T08:23:07;9.20;92.30
71733;DHT22;65965;43.502;3.716;2023-01-08T08:25:33;9.30;92.10
71733;DHT22;65965;43.502;3.716;2023-01-08T08:28:00;9.50;92.00
71733;DHT22;65965;43.502;3.716;2023-01-08T08:30:28;9.60;92.00
71733;DHT22;65965;43.502;3.716;2023-01-08T08:32:54;9.70;91.90
71733;DHT22;65965;43.502;3.716;2023-01-08T08:35:20;9.90;91.70
71733;DHT22;65965;43.502;3.716;2023-01-08T08:37:46;10.00;91.40
71733;DHT22;65965;43.502;3.716;2023-01-08T08:40:12;10.10;91.20
71733;DHT22;65965;43.502;3.716;2023-01-08T08:42:38;10.20;90.90
71733;DHT22;65965;43.502;3.716;2023-01-08T08:45:04;10.30;90.60
71733;DHT22;65965;43.502;3.716;2023-01-08T08:47:30;10.50;90.40
71733;DHT22;65965;43.502;3.716;2023-01-08T08:49:56;10.60;90.00
71733;DHT22;65965;43.502;3.716;2023-01-08T08:52:21;10.80;89.60
71733;DHT22;65965;43.502;3.716;2023-01-08T08:54:47;10.90;88.90
71733;DHT22;65965;43.502;3.716;2023-01-08T08:57:13;11.10;88.20
71733;DHT22;65965;43.502;3.716;2023-01-08T08:59:39;11.20;87.30
71733;DHT22;65965;43.502;3.716;2023-01-08T09:02:05;11.40;86.50
71733;DHT22;65965;43.502;3.716;2023-01-08T09:04:31;11.70;85.60
71733;DHT22;65965;43.502;3.716;2023-01-08T09:06:57;11.90;84.60
71733;DHT22;65965;43.502;3.716;2023-01-08T09:09:23;12.10;84.20
71733;DHT22;65965;43.502;3.716;2023-01-08T09:11:49;12.40;82.00
71733;DHT22;65965;43.502;3.716;2023-01-08T09:14:15;12.90;82.20
71733;DHT22;65965;43.502;3.716;2023-01-08T09:16:41;13.50;79.40
71733;DHT22;65965;43.502;3.716;2023-01-08T09:19:08;13.70;78.50
71733;DHT22;65965;43.502;3.716;2023-01-08T09:21:35;14.00;76.40
71733;DHT22;65965;43.502;3.716;2023-01-08T09:24:01;13.80;78.30
71733;DHT22;65965;43.502;3.716;2023-01-08T09:26:27;13.80;78.40
71733;DHT22;65965;43.502;3.716;2023-01-08T09:28:55;14.30;76.40
71733;DHT22;65965;43.502;3.716;2023-01-08T09:31:20;14.70;75.70
71733;DHT22;65965;43.502;3.716;2023-01-08T09:33:47;14.60;75.90
71733;DHT22;65965;43.502;3.716;2023-01-08T09:36:13;14.90;75.60
71733;DHT22;65965;43.502;3.716;2023-01-08T09:38:39;14.60;75.30
71733;DHT22;65965;43.502;3.716;2023-01-08T09:41:15;14.30;75.90
71733;DHT22;65965;43.502;3.716;2023-01-08T09:43:44;14.00;75.90
71733;DHT22;65965;43.502;3.716;2023-01-08T09:46:13;14.60;76.00
71733;DHT22;65965;43.502;3.716;2023-01-08T09:48:40;16.50;69.90
71733;DHT22;65965;43.502;3.716;2023-01-08T09:51:13;17.80;67.40
71733;DHT22;65965;43.502;3.716;2023-01-08T09:53:40;18.80;63.30
71733;DHT22;65965;43.502;3.716;2023-01-08T09:56:16;18.60;62.50
71733;DHT22;65965;43.502;3.716;2023-01-08T09:58:53;18.60;61.20
71733;DHT22;65965;43.502;3.716;2023-01-08T10:01:21;19.20;61.70
71733;DHT22;65965;43.502;3.716;2023-01-08T10:03:52;20.70;58.40
71733;DHT22;65965;43.502;3.716;2023-01-08T10:06:19;22.20;55.60
71733;DHT22;65965;43.502;3.716;2023-01-08T10:08:45;21.50;56.20
71733;DHT22;65965;43.502;3.716;2023-01-08T10:11:12;21.00;54.20
71733;DHT22;65965;43.502;3.716;2023-01-08T10:13:41;20.20;57.90
71733;DHT22;65965;43.502;3.716;2023-01-08T10:16:11;19.50;60.60
71733;DHT22;65965;43.502;3.716;2023-01-08T10:18:41;22.40;50.00
71733;DHT22;65965;43.502;3.716;2023-01-08T10:21:12;22.80;48.00
71733;DHT22;65965;43.502;3.716;2023-01-08T10:23:48;22.10;50.50
71733;DHT22;65965;43.502;3.716;2023-01-08T10:26:24;21.90;53.70
71733;DHT22;65965;43.502;3.716;2023-01-08T10:28:50;22.20;50.70
71733;DHT22;65965;43.502;3.716;2023-01-08T10:31:16;21.30;53.10
71733;DHT22;65965;43.502;3.716;2023-01-08T10:33:44;19.50;56.00
71733;DHT22;65965;43.502;3.716;2023-01-08T10:36:22;18.30;59.40
71733;DHT22;65965;43.502;3.716;2023-01-08T10:41:21;16.70;64.40
71733;DHT22;65965;43.502;3.716;2023-01-08T10:43:53;16.40;66.70
71733;DHT22;65965;43.502;3.716;2023-01-08T10:46:25;16.00;68.40
71733;DHT22;65965;43.502;3.716;2023-01-08T10:48:54;15.90;66.70
71733;DHT22;65965;43.502;3.716;2023-01-08T10:51:23;15.80;69.00
71733;DHT22;65965;43.502;3.716;2023-01-08T10:53:50;16.20;68.40
71733;DHT22;65965;43.502;3.716;2023-01-08T10:56:21;16.00;68.60
71733;DHT22;65965;43.502;3.716;2023-01-08T10:58:47;15.50;67.80
71733;DHT22;65965;43.502;3.716;2023-01-08T11:01:29;14.80;68.90
71733;DHT22;65965;43.502;3.716;2023-01-08T11:04:01;14.40;71.20
71733;DHT22;65965;43.502;3.716;2023-01-08T11:06:39;14.10;71.40
71733;DHT22;65965;43.502;3.716;2023-01-08T11:11:43;13.80;72.30
71733;DHT22;65965;43.502;3.716;2023-01-08T11:14:27;13.90;71.90
71733;DHT22;65965;43.502;3.716;2023-01-08T11:16:54;13.80;71.60
71733;DHT22;65965;43.502;3.716;2023-01-08T11:19:29;13.70;71.90
71733;DHT22;65965;43.502;3.716;2023-01-08T11:21:59;13.60;72.80
71733;DHT22;65965;43.502;3.716;2023-01-08T11:24:32;13.60;72.90
71733;DHT22;65965;43.502;3.716;2023-01-08T11:27:32;13.70;73.40
71733;DHT22;65965;43.502;3.716;2023-01-08T11:32:50;13.80;74.00
71733;DHT22;65965;43.502;3.716;2023-01-08T11:35:45;13.70;74.50
71733;DHT22;65965;43.502;3.716;2023-01-08T11:38:13;13.60;75.00
71733;DHT22;65965;43.502;3.716;2023-01-08T11:40:54;13.50;75.50
71733;DHT22;65965;43.502;3.716;2023-01-08T12:05:46;13.60;75.80
71733;DHT22;65965;43.502;3.716;2023-01-08T12:08:28;13.60;75.80
71733;DHT22;65965;43.502;3.716;2023-01-08T12:11:02;13.40;76.10
71733;DHT22;65965;43.502;3.716;2023-01-08T12:16:14;13.50;76.20
71733;DHT22;65965;43.502;3.716;2023-01-08T12:35:14;13.70;74.90
71733;DHT22;65965;43.502;3.716;2023-01-08T12:38:01;13.90;73.80
71733;DHT22;65965;43.502;3.716;2023-01-08T12:40:35;14.00;73.40
71733;DHT22;65965;43.502;3.716;2023-01-08T12:43:06;14.20;73.00
71733;DHT22;65965;43.502;3.716;2023-01-08T12:45:39;14.30;71.60
71733;DHT22;65965;43.502;3.716;2023-01-08T12:48:28;14.30;72.90
71733;DHT22;65965;43.502;3.716;2023-01-08T12:51:05;14.40;72.60
71733;DHT22;65965;43.502;3.716;2023-01-08T12:56:39;14.30;71.50
71733;DHT22;65965;43.502;3.716;2023-01-08T13:04:09;14.70;71.30
71733;DHT22;65965;43.502;3.716;2023-01-08T13:20:56;15.80;68.40
71733;DHT22;65965;43.502;3.716;2023-01-08T13:23:34;15.90;66.20
71733;DHT22;65965;43.502;3.716;2023-01-08T13:26:02;16.10;66.50
71733;DHT22;65965;43.502;3.716;2023-01-08T13:33:46;16.50;64.70
71733;DHT22;65965;43.502;3.716;2023-01-08T13:36:28;16.40;63.80
71733;DHT22;65965;43.502;3.716;2023-01-08T13:41:43;16.10;65.20
71733;DHT22;65965;43.502;3.716;2023-01-08T13:46:55;16.00;66.40
71733;DHT22;65965;43.502;3.716;2023-01-08T13:49:41;15.80;67.00
71733;DHT22;65965;43.502;3.716;2023-01-08T13:54:58;15.60;68.20
71733;DHT22;65965;43.502;3.716;2023-01-08T13:57:24;15.50;69.30
71733;DHT22;65965;43.502;3.716;2023-01-08T13:59:54;15.80;69.10
71733;DHT22;65965;43.502;3.716;2023-01-08T14:02:29;15.90;68.20
71733;DHT22;65965;43.502;3.716;2023-01-08T14:04:56;15.70;69.20
71733;DHT22;65965;43.502;3.716;2023-01-08T14:07:23;15.80;68.40
71733;DHT22;65965;43.502;3.716;2023-01-08T14:09:50;15.70;68.70
71733;DHT22;65965;43.502;3.716;2023-01-08T14:12:23;15.70;69.60
71733;DHT22;65965;43.502;3.716;2023-01-08T14:14:54;16.20;68.00
71733;DHT22;65965;43.502;3.716;2023-01-08T14:17:24;16.90;65.30
71733;DHT22;65965;43.502;3.716;2023-01-08T14:19:51;16.40;66.70
71733;DHT22;65965;43.502;3.716;2023-01-08T14:22:20;16.00;68.40
71733;DHT22;65965;43.502;3.716;2023-01-08T14:24:54;15.50;69.90
71733;DHT22;65965;43.502;3.716;2023-01-08T14:27:23;15.20;71.30
71733;DHT22;65965;43.502;3.716;2023-01-08T14:29:49;15.10;71.60
71733;DHT22;65965;43.502;3.716;2023-01-08T14:32:24;15.10;71.00
71733;DHT22;65965;43.502;3.716;2023-01-08T14:34:51;15.10;71.70
71733;DHT22;65965;43.502;3.716;2023-01-08T14:37:18;15.10;71.50
71733;DHT22;65965;43.502;3.716;2023-01-08T14:39:45;15.10;71.70
71733;DHT22;65965;43.502;3.716;2023-01-08T14:42:32;15.50;70.80
71733;DHT22;65965;43.502;3.716;2023-01-08T14:45:09;15.70;70.60
71733;DHT22;65965;43.502;3.716;2023-01-08T14:47:43;15.50;70.90
71733;DHT22;65965;43.502;3.716;2023-01-08T14:50:26;15.20;71.00
71733;DHT22;65965;43.502;3.716;2023-01-08T14:53:02;15.00;72.20
71733;DHT22;65965;43.502;3.716;2023-01-08T14:55:31;14.70;72.60
71733;DHT22;65965;43.502;3.716;2023-01-08T14:57:59;14.60;73.00
71733;DHT22;65965;43.502;3.716;2023-01-08T15:00:27;14.60;73.40
71733;DHT22;65965;43.502;3.716;2023-01-08T15:02:53;14.60;74.10
71733;DHT22;65965;43.502;3.716;2023-01-08T15:05:27;14.60;73.20
71733;DHT22;65965;43.502;3.716;2023-01-08T15:10:40;14.90;72.80
71733;DHT22;65965;43.502;3.716;2023-01-08T15:13:21;15.00;72.10
71733;DHT22;65965;43.502;3.716;2023-01-08T15:15:57;15.00;72.70
71733;DHT22;65965;43.502;3.716;2023-01-08T15:18:23;14.90;73.00
71733;DHT22;65965;43.502;3.716;2023-01-08T15:20:50;14.70;73.60
71733;DHT22;65965;43.502;3.716;2023-01-08T15:23:40;14.40;74.50
71733;DHT22;65965;43.502;3.716;2023-01-08T15:26:11;14.10;73.70
71733;DHT22;65965;43.502;3.716;2023-01-08T15:28:42;13.80;74.60
71733;DHT22;65965;43.502;3.716;2023-01-08T15:31:08;13.60;75.10
71733;DHT22;65965;43.502;3.716;2023-01-08T15:33:34;13.30;76.00
71733;DHT22;65965;43.502;3.716;2023-01-08T15:35:59;13.20;76.60
71733;DHT22;65965;43.502;3.716;2023-01-08T15:38:25;13.00;77.00
71733;DHT22;65965;43.502;3.716;2023-01-08T15:40:51;12.80;77.60
71733;DHT22;65965;43.502;3.716;2023-01-08T15:43:17;12.70;78.20
71733;DHT22;65965;43.502;3.716;2023-01-08T15:45:46;12.50;78.90
71733;DHT22;65965;43.502;3.716;2023-01-08T15:48:12;12.40;79.30
71733;DHT22;65965;43.502;3.716;2023-01-08T15:50:40;12.40;79.70
71733;DHT22;65965;43.502;3.716;2023-01-08T15:53:19;12.30;79.70
71733;DHT22;65965;43.502;3.716;2023-01-08T15:55:47;12.20;80.40
71733;DHT22;65965;43.502;3.716;2023-01-08T15:58:14;12.10;80.70
71733;DHT22;65965;43.502;3.716;2023-01-08T16:00:41;12.00;81.10
71733;DHT22;65965;43.502;3.716;2023-01-08T16:03:07;11.80;81.90
71733;DHT22;65965;43.502;3.716;2023-01-08T16:05:34;11.70;82.70
71733;DHT22;65965;43.502;3.716;2023-01-08T16:08:01;11.90;81.90
71733;DHT22;65965;43.502;3.716;2023-01-08T16:10:26;12.10;81.40
71733;DHT22;65965;43.502;3.716;2023-01-08T16:12:53;12.20;81.00
71733;DHT22;65965;43.502;3.716;2023-01-08T16:15:19;12.30;80.30
71733;DHT22;65965;43.502;3.716;2023-01-08T16:17:45;12.30;80.20
71733;DHT22;65965;43.502;3.716;2023-01-08T16:20:12;12.20;80.30
71733;DHT22;65965;43.502;3.716;2023-01-08T16:22:37;12.10;80.70
71733;DHT22;65965;43.502;3.716;2023-01-08T16:25:03;12.10;81.00
71733;DHT22;65965;43.502;3.716;2023-01-08T16:27:30;12.00;81.30
71733;DHT22;65965;43.502;3.716;2023-01-08T16:29:56;11.90;82.00
71733;DHT22;65965;43.502;3.716;2023-01-08T16:32:22;11.80;82.90
71733;DHT22;65965;43.502;3.716;2023-01-08T16:34:48;11.60;83.40
71733;DHT22;65965;43.502;3.716;2023-01-08T16:37:14;11.50;83.60
71733;DHT22;65965;43.502;3.716;2023-01-08T16:39:39;11.30;84.30
71733;DHT22;65965;43.502;3.716;2023-01-08T16:42:05;11.20;85.50
71733;DHT22;65965;43.502;3.716;2023-01-08T16:44:33;11.20;84.90
71733;DHT22;65965;43.502;3.716;2023-01-08T16:47:00;11.20;85.40
71733;DHT22;65965;43.502;3.716;2023-01-08T16:49:26;11.20;85.10
71733;DHT22;65965;43.502;3.716;2023-01-08T16:51:52;11.30;85.60
71733;DHT22;65965;43.502;3.716;2023-01-08T16:54:17;11.30;84.80
71733;DHT22;65965;43.502;3.716;2023-01-08T16:56:43;11.30;84.90
71733;DHT22;65965;43.502;3.716;2023-01-08T16:59:09;11.30;85.00
71733;DHT22;65965;43.502;3.716;2023-01-08T17:01:35;11.40;84.90
71733;DHT22;65965;43.502;3.716;2023-01-08T17:04:01;11.30;84.80
71733;DHT22;65965;43.502;3.716;2023-01-08T17:06:27;11.30;84.90
71733;DHT22;65965;43.502;3.716;2023-01-08T17:08:53;11.10;85.00
71733;DHT22;65965;43.502;3.716;2023-01-08T17:11:20;11.00;85.70
71733;DHT22;65965;43.502;3.716;2023-01-08T17:13:46;10.90;86.10
71733;DHT22;65965;43.502;3.716;2023-01-08T17:16:14;10.70;86.80
71733;DHT22;65965;43.502;3.716;2023-01-08T17:18:40;10.50;86.20
71733;DHT22;65965;43.502;3.716;2023-01-08T17:21:08;10.40;86.80
71733;DHT22;65965;43.502;3.716;2023-01-08T17:23:34;10.30;88.20
71733;DHT22;65965;43.502;3.716;2023-01-08T17:26:04;10.30;89.00
71733;DHT22;65965;43.502;3.716;2023-01-08T17:28:30;10.30;88.60
71733;DHT22;65965;43.502;3.716;2023-01-08T17:31:08;10.20;88.30